Portada
METAR-TAF:

METAR-TAF

Aeroports :

Béchar, Algèria

latitud: 31-37N, longitud: 002-14W, altitud: 773 m

Observació

L'informe es va fer fa 1 hora i 7 minuts, a les 16:00 UTC
Vent 3 kt del Est
Temperatura 17°C
Humitat 22%
Pressió 1023 hPa
Visibilitat 10 km o més
Escasses núvols a una alçada de 3300 ft

METAR: DAOR 261600Z 10003KT 9999 FEW033 17/M05 Q1023

Hora: 18:07 (17:07 UTC)

Pronòstic

L'informe es va fer fa 3 hores i 7 minuts, a les 14:00 UTC
Pronòstic vàlid del 26 a les 15 UTC al 26 a les 24 UTC
Vent 6 kt del Est/Sud-Est
Visibilitat 10 km o més
sense núvols per sota de 1500 mi sense presència de cumulonimbus.

TAF: DAOR 261400Z 2615/2624 12006KT CAVOK

Observacions i pronòstics meteorològics de més de 4000 aeroports (METAR i TAF).

Les estacions disponibles són els punts grocs i vermells al mapa.

Posi el ratolí al punt desitjat per veure el nom de l'estació.

Feu clic per veure les observacions i els pronòstics meteorològics.

Per canviar el mapa: feu clic els botons verds amb una creu de color negre per apropar; al botó verd amb un guió per allunyar la imatge; o en les fletxes verdes per a mapes adjacents.


METAR-TAF: